Ana Sayfa
METAR-TAF:

METAR-TAF

Havaalanları :

Dakar, Senegal

Enlem: 14-44N, Boylam: 017-30W, yükseklik: 27 m

Güncel hava durumu gözlemi

Rapor saat 19:00 UTC de 25 dakika önce yapıldı.
Rüzgar kuzey/kuzeydoğudan 16 kt
Sıcaklık 24°C
Nem 74%
Basınç 1009 hPa
Görüş mesafesi: 7000 m

METAR: GOOY 241900Z 02016KT 7000 NSC 24/19 Q1009

Saat: 19:25 (19:25 UTC)

Tahmin

Rapor saat 17:30 UTC de 1 saat ve 55 dakika önce yapıldı.
Ayın 24'si saat 18 UTC'den ayın 25'si saat 24 UTC'ye kadar geçerli Tahmin
Rüzgar kuzeydan 15 kt
Görüş mesafesi: 8000 m
Dönüşüyor
ayın 24'si saat 21 UTC'den ayın 24'si saat 23 UTC'ye kadar
Görüş mesafesi: 4500 m
yaygın toz

TAF: GOOY 241730Z 2418/2524 36015KT 8000 NSC BECMG 2421/2423 4500 DU

4.000'den fazla havaalanı için hava durumu gözlemleri ve tahminleri (METAR ve TAF raporları).

Kullanılabilir istasyonlar harita üzerinde sarı ve kırmızı noktalarla gösterilir.

İstasyonun adını görmek için fareyi noktanın üzerinde gezdirin.

Sonrasında hava gözlem ve tahminlerini görmek için tıklayın.

Haritayı değiştirmek için: yaklaştırmak için siyah artı işaretli yeşil düğmeye ve uzaklaştırmak için de eksi işaretli düğmeye hızla tıklayın; bitişik haritalar için yeşil okları kullanın.


METAR-TAF: